createdAt,value
2023-11-16T00:01:52.124Z,3.47
2023-11-16T00:04:54.709Z,2.30
2023-11-16T00:07:58.724Z,1.63
2023-11-16T00:11:01.554Z,3.80
2023-11-16T00:14:04.889Z,2.83
2023-11-16T00:17:10.212Z,2.88
2023-11-16T00:20:12.817Z,1.73
2023-11-16T00:23:15.420Z,2.53
2023-11-16T00:26:20.443Z,4.95
2023-11-16T00:29:28.429Z,3.37
2023-11-16T00:32:30.913Z,2.13
2023-11-16T00:35:33.344Z,9.73
2023-11-16T00:38:36.583Z,5.37
2023-11-16T00:41:39.081Z,4.70
2023-11-16T00:44:41.942Z,2.28
2023-11-16T00:47:44.830Z,2.20
2023-11-16T00:50:47.270Z,5.45
2023-11-16T00:53:49.896Z,4.18
2023-11-16T00:56:52.480Z,2.53
2023-11-16T00:59:54.879Z,4.90
2023-11-16T01:02:59.999Z,9.13
2023-11-16T01:06:03.996Z,4.60
2023-11-16T01:09:09.843Z,3.83
2023-11-16T01:12:16.901Z,4.45
2023-11-16T01:15:22.112Z,3.22
2023-11-16T01:18:28.333Z,3.28
2023-11-16T01:21:31.175Z,3.63
2023-11-16T01:24:36.733Z,3.28
2023-11-16T01:27:40.306Z,3.28
2023-11-16T01:30:42.857Z,3.33
2023-11-16T01:33:47.328Z,3.72
2023-11-16T01:36:51.451Z,4.38
2023-11-16T01:39:54.338Z,5.40
2023-11-16T01:42:58.412Z,6.88
2023-11-16T01:46:07.007Z,9.95
2023-11-16T01:49:10.421Z,2.75
2023-11-16T01:52:16.214Z,5.40
2023-11-16T01:55:18.741Z,4.85
2023-11-16T01:58:21.847Z,3.95
2023-11-16T02:01:25.583Z,6.47
2023-11-16T02:04:28.834Z,8.07
2023-11-16T02:07:31.893Z,7.45
2023-11-16T02:10:34.318Z,7.60
2023-11-16T02:13:37.085Z,5.70
2023-11-16T02:16:40.317Z,6.35
2023-11-16T02:19:43.469Z,6.50
2023-11-16T02:22:47.010Z,5.13
2023-11-16T02:25:54.322Z,4.20
2023-11-16T02:28:57.252Z,3.45
2023-11-16T02:31:59.830Z,4.40
2023-11-16T02:35:03.446Z,4.13
2023-11-16T02:38:07.295Z,4.45
2023-11-16T02:41:10.340Z,4.87
2023-11-16T02:44:20.042Z,5.50
2023-11-16T02:47:22.920Z,11.63
2023-11-16T02:50:27.274Z,6.82
2023-11-16T02:53:29.730Z,4.57
2023-11-16T02:56:32.231Z,2.33
2023-11-16T02:59:35.296Z,6.53
2023-11-16T03:02:37.731Z,2.23
2023-11-16T03:05:42.277Z,3.67
2023-11-16T03:08:45.038Z,5.32
2023-11-16T03:11:47.501Z,5.60
2023-11-16T03:14:51.263Z,6.28
2023-11-16T03:17:53.792Z,3.53
2023-11-16T03:20:56.191Z,1.55
2023-11-16T03:23:58.660Z,3.42
2023-11-16T03:27:01.431Z,2.80
2023-11-16T03:30:06.273Z,1.45
2023-11-16T03:33:13.668Z,2.30
2023-11-16T03:36:17.561Z,3.45
2023-11-16T03:39:20.084Z,3.78
2023-11-16T03:42:22.665Z,4.37
2023-11-16T03:45:25.262Z,1.67
2023-11-16T03:48:27.957Z,2.25
2023-11-16T03:51:31.604Z,1.40
2023-11-16T03:54:34.375Z,3.97
2023-11-16T03:57:36.802Z,1.80
2023-11-16T04:00:39.314Z,4.20
2023-11-16T04:03:43.452Z,6.97
2023-11-16T04:06:47.755Z,3.88
2023-11-16T04:09:53.198Z,5.10
2023-11-16T04:12:56.860Z,3.70
2023-11-16T04:16:00.985Z,2.55
2023-11-16T04:19:05.579Z,3.95
2023-11-16T04:22:08.165Z,5.05
2023-11-16T04:25:26.575Z,2.55
2023-11-16T04:28:31.131Z,2.90
2023-11-16T04:31:35.014Z,2.85
2023-11-16T04:34:37.516Z,1.97
2023-11-16T04:37:39.875Z,1.85
2023-11-16T04:40:42.319Z,3.13
2023-11-16T04:43:46.521Z,3.60
2023-11-16T04:46:50.414Z,5.13
2023-11-16T04:49:53.843Z,12.07
2023-11-16T04:52:56.229Z,4.57
2023-11-16T04:55:58.721Z,3.10
2023-11-16T04:59:01.463Z,7.15
2023-11-16T05:02:04.021Z,4.53
2023-11-16T05:05:06.772Z,4.40
2023-11-16T05:08:09.832Z,17.02
2023-11-16T05:11:21.299Z,6.00
2023-11-16T05:14:23.688Z,5.37
2023-11-16T05:17:26.187Z,10.05
2023-11-16T05:20:28.659Z,5.05
2023-11-16T05:23:31.106Z,9.35
2023-11-16T05:26:33.567Z,14.48
2023-11-16T05:29:36.038Z,12.35
2023-11-16T05:32:38.565Z,10.30
2023-11-16T05:35:41.066Z,8.17
2023-11-16T05:38:45.234Z,7.35
2023-11-16T05:41:47.743Z,12.10
2023-11-16T05:44:50.199Z,10.00
2023-11-16T05:47:52.674Z,19.35
2023-11-16T05:50:55.221Z,23.58
2023-11-16T05:53:57.741Z,17.70
2023-11-16T05:57:00.368Z,13.95
2023-11-16T06:00:08.376Z,14.93
2023-11-16T06:03:14.405Z,13.55
2023-11-16T06:06:16.857Z,17.93
2023-11-16T06:09:20.453Z,15.98
2023-11-16T06:12:24.277Z,19.92
2023-11-16T06:15:29.950Z,14.97
2023-11-16T06:18:32.845Z,21.45
2023-11-16T06:21:35.270Z,22.85
2023-11-16T06:24:38.158Z,23.13
2023-11-16T06:27:40.789Z,19.13
2023-11-16T06:30:43.513Z,12.25
2023-11-16T06:33:46.038Z,15.88
2023-11-16T06:36:49.577Z,21.40
2023-11-16T06:39:52.136Z,26.52
2023-11-16T06:42:54.738Z,27.92
2023-11-16T06:46:01.045Z,22.27
2023-11-16T06:49:04.083Z,31.65
2023-11-16T06:52:07.189Z,37.20
2023-11-16T06:55:11.904Z,25.63
2023-11-16T06:58:14.469Z,24.23
2023-11-16T07:01:16.878Z,20.70
2023-11-16T07:04:20.218Z,21.75
2023-11-16T07:07:22.705Z,25.00
2023-11-16T07:10:25.392Z,15.13
2023-11-16T07:13:27.823Z,11.05
2023-11-16T07:16:30.910Z,16.17
2023-11-16T07:19:33.497Z,17.48
2023-11-16T07:22:37.295Z,14.18
2023-11-16T07:25:39.739Z,10.93
2023-11-16T07:28:43.872Z,9.95
2023-11-16T07:31:47.217Z,16.35
2023-11-16T07:34:49.724Z,11.23
2023-11-16T07:37:53.039Z,19.13
2023-11-16T07:40:58.410Z,20.02
2023-11-16T07:44:01.375Z,18.83
2023-11-16T07:47:04.663Z,17.10
2023-11-16T07:50:08.865Z,20.05
2023-11-16T07:53:12.023Z,18.95
2023-11-16T07:56:18.813Z,21.02
2023-11-16T07:59:26.490Z,13.52
2023-11-16T08:02:48.964Z,13.70
2023-11-16T08:05:51.886Z,16.08
2023-11-16T08:08:54.424Z,22.90
2023-11-16T08:11:57.513Z,19.38
2023-11-16T08:15:00.048Z,17.02
2023-11-16T08:18:02.689Z,12.07
2023-11-16T08:21:09.279Z,30.83
2023-11-16T08:24:15.342Z,16.15
2023-11-16T08:27:19.272Z,10.60
2023-11-16T08:30:25.389Z,14.40
2023-11-16T08:33:27.944Z,8.48
2023-11-16T08:36:30.410Z,11.32
2023-11-16T08:39:32.889Z,10.70
2023-11-16T08:42:42.726Z,10.75
2023-11-16T08:45:46.900Z,14.07
2023-11-16T08:48:49.584Z,12.53
2023-11-16T08:52:00.652Z,16.70
2023-11-16T08:55:04.139Z,6.32
2023-11-16T08:58:07.848Z,8.65
2023-11-16T09:01:11.890Z,6.25
2023-11-16T09:04:15.011Z,5.97
2023-11-16T09:07:17.920Z,5.50
2023-11-16T09:10:22.364Z,9.63
2023-11-16T09:13:24.879Z,6.93
2023-11-16T09:16:27.335Z,8.82
2023-11-16T09:19:32.056Z,10.00
2023-11-16T09:22:34.866Z,9.93
2023-11-16T09:25:37.511Z,7.90
2023-11-16T09:28:40.192Z,8.10
2023-11-16T09:31:45.022Z,3.78
2023-11-16T09:34:51.158Z,2.90
2023-11-16T09:37:56.864Z,4.35
2023-11-16T09:41:12.671Z,3.63
2023-11-16T09:44:18.175Z,3.40
2023-11-16T09:47:27.957Z,1.90
2023-11-16T09:50:31.022Z,2.47
2023-11-16T09:53:35.750Z,3.70
2023-11-16T09:56:43.100Z,4.57
2023-11-16T09:59:52.043Z,2.10
2023-11-16T10:02:57.259Z,2.33
2023-11-16T10:06:00.665Z,2.67
2023-11-16T10:09:15.758Z,3.80
2023-11-16T10:12:18.414Z,1.93
2023-11-16T10:15:22.099Z,4.03
2023-11-16T10:18:25.656Z,6.30
2023-11-16T10:21:29.685Z,2.27
2023-11-16T10:24:35.293Z,2.75
2023-11-16T10:27:38.701Z,2.70
2023-11-16T10:30:42.399Z,2.30
2023-11-16T10:33:46.373Z,2.38
2023-11-16T10:36:50.103Z,3.97
2023-11-16T10:39:53.044Z,2.28
2023-11-16T10:42:57.818Z,1.80
2023-11-16T10:46:01.966Z,1.92
2023-11-16T10:49:05.328Z,2.88
2023-11-16T10:52:09.009Z,4.03
2023-11-16T10:55:17.667Z,2.05
2023-11-16T10:58:22.321Z,3.13
2023-11-16T11:01:25.852Z,2.28
2023-11-16T11:04:29.780Z,2.03
2023-11-16T11:07:34.405Z,1.45
2023-11-16T11:10:42.806Z,5.18
2023-11-16T11:13:46.553Z,2.83
2023-11-16T11:16:51.927Z,3.08
2023-11-16T11:20:01.704Z,3.03
2023-11-16T11:23:09.901Z,4.80
2023-11-16T11:26:14.933Z,4.82
2023-11-16T11:29:21.799Z,1.95
2023-11-16T11:32:34.815Z,2.35
2023-11-16T11:35:38.543Z,2.78
2023-11-16T11:38:43.896Z,1.35
2023-11-16T11:42:01.077Z,0.80
2023-11-16T11:45:05.864Z,1.87
2023-11-16T11:48:08.931Z,1.77
2023-11-16T11:51:15.696Z,3.33
2023-11-16T11:54:18.127Z,1.47
2023-11-16T11:57:27.784Z,2.60
2023-11-16T12:00:52.693Z,1.42
2023-11-16T12:04:06.084Z,1.08
2023-11-16T12:07:13.655Z,0.80
2023-11-16T12:10:16.937Z,0.55
2023-11-16T12:13:19.524Z,5.00
2023-11-16T12:16:26.629Z,1.70
2023-11-16T12:19:29.123Z,1.23
2023-11-16T12:22:32.354Z,0.70
2023-11-16T12:25:37.314Z,0.90
2023-11-16T12:28:40.202Z,0.75
2023-11-16T12:31:42.708Z,0.70
2023-11-16T12:34:45.326Z,1.35
2023-11-16T12:37:47.794Z,0.88
2023-11-16T12:40:50.206Z,1.08
2023-11-16T12:43:52.818Z,1.27
2023-11-16T12:46:55.777Z,1.20
2023-11-16T12:49:59.933Z,0.52
2023-11-16T12:53:02.498Z,1.33
2023-11-16T12:56:07.311Z,1.53
2023-11-16T12:59:14.041Z,1.77
2023-11-16T13:02:16.650Z,0.90
2023-11-16T13:05:20.163Z,0.70
2023-11-16T13:08:23.564Z,1.77
2023-11-16T13:11:26.217Z,0.85
2023-11-16T13:14:28.642Z,1.23
2023-11-16T13:17:31.332Z,1.20
2023-11-16T13:20:33.889Z,0.50
2023-11-16T13:23:37.524Z,2.13
2023-11-16T13:26:41.736Z,0.80
2023-11-16T13:29:45.812Z,1.00
2023-11-16T13:32:48.327Z,0.82
2023-11-16T13:35:50.760Z,1.35
2023-11-16T13:38:55.120Z,0.70
2023-11-16T13:41:57.620Z,1.33
2023-11-16T13:45:00.058Z,3.45
2023-11-16T13:48:02.628Z,1.63
2023-11-16T13:51:05.303Z,1.45
2023-11-16T13:54:07.746Z,2.65
2023-11-16T13:57:10.511Z,2.00
2023-11-16T14:00:13.541Z,2.70
2023-11-16T14:03:17.458Z,2.90
2023-11-16T14:06:25.015Z,1.25
2023-11-16T14:09:27.512Z,2.10
2023-11-16T14:12:30.067Z,2.08
2023-11-16T14:15:33.591Z,3.17
2023-11-16T14:18:36.694Z,1.00
2023-11-16T14:21:40.575Z,0.75
2023-11-16T14:24:47.423Z,1.42
2023-11-16T14:27:50.046Z,2.10
2023-11-16T14:30:53.157Z,1.63
2023-11-16T14:33:56.556Z,2.50
2023-11-16T14:36:59.301Z,2.95
2023-11-16T14:40:02.784Z,6.07
2023-11-16T14:43:06.196Z,5.63
2023-11-16T14:46:10.064Z,30.13
2023-11-16T14:49:15.815Z,35.10
2023-11-16T14:52:18.427Z,26.73
2023-11-16T14:55:20.911Z,31.17
2023-11-16T14:58:23.632Z,22.97
2023-11-16T15:01:30.528Z,11.27
2023-11-16T15:04:33.058Z,11.05
2023-11-16T15:07:36.554Z,9.65
2023-11-16T15:10:38.952Z,9.93
2023-11-16T15:13:50.897Z,12.07
2023-11-16T15:17:01.634Z,12.07
2023-11-16T15:20:15.940Z,8.23
2023-11-16T15:23:26.502Z,12.38
2023-11-16T15:26:37.716Z,8.27
2023-11-16T15:29:47.601Z,37.10
2023-11-16T15:32:51.686Z,26.75
2023-11-16T15:35:54.273Z,34.92
2023-11-16T15:39:04.293Z,57.40
2023-11-16T15:42:08.054Z,34.08
2023-11-16T15:45:13.780Z,33.10
2023-11-16T15:48:16.350Z,48.38
2023-11-16T15:51:23.758Z,26.03
2023-11-16T15:54:26.503Z,25.23
2023-11-16T15:57:30.381Z,32.85
2023-11-16T16:00:34.777Z,37.90
2023-11-16T16:03:37.537Z,36.05
2023-11-16T16:06:40.514Z,38.33
2023-11-16T16:09:45.098Z,13.25
2023-11-16T16:12:47.674Z,25.70
2023-11-16T16:15:50.786Z,19.90
2023-11-16T16:18:53.356Z,9.07
2023-11-16T16:21:55.790Z,8.80
2023-11-16T16:24:58.495Z,9.20
2023-11-16T16:28:01.219Z,10.77
2023-11-16T16:31:04.292Z,12.60
2023-11-16T16:34:11.037Z,12.80
2023-11-16T16:37:13.623Z,18.98
2023-11-16T16:40:17.651Z,27.45
2023-11-16T16:43:20.171Z,10.65
2023-11-16T16:46:26.259Z,11.13
2023-11-16T16:49:31.589Z,9.05
2023-11-16T16:52:34.130Z,13.43
2023-11-16T16:55:38.949Z,12.93
2023-11-16T16:58:41.530Z,29.00
2023-11-16T17:01:44.056Z,19.33
2023-11-16T17:04:47.407Z,18.58
2023-11-16T17:07:49.884Z,12.40
2023-11-16T17:10:52.273Z,13.88
2023-11-16T17:13:55.789Z,14.43
2023-11-16T17:16:58.361Z,11.43
2023-11-16T17:20:01.655Z,9.82
2023-11-16T17:23:04.191Z,16.07
2023-11-16T17:26:07.892Z,16.42
2023-11-16T17:29:10.379Z,10.40
2023-11-16T17:32:13.606Z,15.60
2023-11-16T17:35:17.428Z,15.80
2023-11-16T17:38:20.528Z,25.77
2023-11-16T17:41:24.656Z,22.70
2023-11-16T17:44:28.863Z,16.58
2023-11-16T17:47:31.326Z,20.25
2023-11-16T17:50:33.700Z,21.83
2023-11-16T17:53:36.628Z,16.97
2023-11-16T17:56:39.864Z,13.10
2023-11-16T17:59:43.012Z,9.68
2023-11-16T18:02:46.436Z,13.13
2023-11-16T18:05:49.174Z,7.05
2023-11-16T18:08:52.162Z,11.45
2023-11-16T18:11:54.540Z,18.95
2023-11-16T18:14:58.825Z,25.92
2023-11-16T18:18:04.200Z,20.45
2023-11-16T18:21:06.844Z,17.45
2023-11-16T18:24:09.364Z,50.63
2023-11-16T18:27:15.144Z,27.60
2023-11-16T18:30:20.521Z,22.73
2023-11-16T18:33:23.025Z,19.03
2023-11-16T18:36:25.741Z,25.45
2023-11-16T18:39:31.900Z,24.15
2023-11-16T18:42:36.147Z,15.27
2023-11-16T18:45:40.091Z,23.02
2023-11-16T18:48:42.699Z,23.35
2023-11-16T18:51:49.200Z,26.48
2023-11-16T18:54:51.797Z,23.67
2023-11-16T18:57:54.427Z,26.55
2023-11-16T19:00:56.922Z,19.02
2023-11-16T19:04:00.011Z,20.67
2023-11-16T19:07:03.064Z,14.25
2023-11-16T19:10:06.488Z,18.08
2023-11-16T19:13:13.105Z,22.17
2023-11-16T19:16:16.509Z,15.30
2023-11-16T19:19:19.509Z,21.70
2023-11-16T19:22:23.366Z,14.63
2023-11-16T19:25:26.692Z,26.73
2023-11-16T19:28:30.070Z,36.72
2023-11-16T19:31:33.512Z,21.27
2023-11-16T19:34:36.793Z,7.03
2023-11-16T19:37:39.250Z,7.10
2023-11-16T19:40:42.259Z,6.82
2023-11-16T19:43:44.926Z,8.88
2023-11-16T19:46:50.500Z,11.27
2023-11-16T19:49:53.207Z,10.45
2023-11-16T19:52:56.350Z,8.20
2023-11-16T19:55:58.804Z,3.67
2023-11-16T19:59:01.519Z,5.63
2023-11-16T20:02:06.590Z,5.22
2023-11-16T20:05:09.992Z,16.13
2023-11-16T20:08:12.849Z,5.85
2023-11-16T20:11:15.503Z,6.00
2023-11-16T20:14:18.101Z,10.65
2023-11-16T20:17:20.667Z,11.13
2023-11-16T20:20:27.192Z,12.55
2023-11-16T20:23:29.630Z,9.48
2023-11-16T20:26:32.256Z,16.33
2023-11-16T20:29:38.004Z,9.30
2023-11-16T20:32:41.049Z,8.07
2023-11-16T20:35:43.656Z,10.23
2023-11-16T20:38:46.056Z,11.65
2023-11-16T20:41:49.971Z,12.93
2023-11-16T20:44:52.391Z,7.88
2023-11-16T20:47:55.081Z,9.50
2023-11-16T20:50:57.681Z,10.40
2023-11-16T20:54:00.177Z,10.75
2023-11-16T20:57:02.772Z,8.20
2023-11-16T21:00:09.858Z,10.38
2023-11-16T21:03:14.651Z,8.40
2023-11-16T21:06:17.376Z,9.47
2023-11-16T21:09:19.793Z,11.75
2023-11-16T21:12:22.388Z,8.93
2023-11-16T21:15:24.845Z,14.05
2023-11-16T21:18:29.072Z,12.68
2023-11-16T21:21:32.976Z,9.32
2023-11-16T21:24:35.510Z,15.20
2023-11-16T21:27:38.431Z,7.40
2023-11-16T21:30:41.046Z,10.07
2023-11-16T21:33:43.481Z,9.00
2023-11-16T21:36:45.977Z,14.40
2023-11-16T21:39:48.730Z,12.63
2023-11-16T21:42:51.281Z,14.50
2023-11-16T21:45:53.859Z,8.13
2023-11-16T21:48:56.399Z,7.32
2023-11-16T21:51:59.654Z,8.95
2023-11-16T21:55:02.510Z,11.27
2023-11-16T21:58:05.021Z,8.47
2023-11-16T22:01:09.209Z,5.75
2023-11-16T22:04:13.821Z,6.07
2023-11-16T22:07:16.345Z,7.90
2023-11-16T22:10:19.789Z,7.50
2023-11-16T22:13:22.422Z,3.92
2023-11-16T22:16:24.859Z,6.22
2023-11-16T22:19:33.046Z,4.80
2023-11-16T22:22:35.794Z,2.85
2023-11-16T22:25:38.181Z,4.38
2023-11-16T22:28:40.681Z,2.27
2023-11-16T22:31:43.489Z,3.58
2023-11-16T22:34:46.019Z,1.70
2023-11-16T22:37:49.406Z,7.13
2023-11-16T22:40:51.967Z,6.18
2023-11-16T22:43:54.856Z,3.95
2023-11-16T22:46:58.368Z,5.70
2023-11-16T22:50:00.934Z,6.32
2023-11-16T22:53:04.631Z,8.82
2023-11-16T22:56:07.716Z,6.57
2023-11-16T22:59:13.276Z,5.90
2023-11-16T23:02:15.707Z,5.80
2023-11-16T23:05:19.610Z,4.07
2023-11-16T23:08:22.271Z,5.13
2023-11-16T23:11:24.792Z,7.32
2023-11-16T23:14:27.687Z,1.92
2023-11-16T23:17:30.316Z,3.85
2023-11-16T23:20:34.821Z,2.20
2023-11-16T23:23:37.231Z,3.83
2023-11-16T23:26:39.669Z,2.97
2023-11-16T23:29:45.156Z,5.80
2023-11-16T23:32:47.684Z,4.07
2023-11-16T23:35:50.083Z,3.05
2023-11-16T23:38:52.521Z,5.03
2023-11-16T23:41:54.967Z,4.15
2023-11-16T23:44:57.380Z,9.00
2023-11-16T23:48:01.810Z,5.63
2023-11-16T23:51:15.531Z,5.88
2023-11-16T23:54:21.792Z,2.05
2023-11-16T23:57:24.291Z,10.40
